Time;durP1;ratioP1;P1;durP2;ratioP2;P2;SDS_P1;SDS_P2;PMS_P1;PMS_P2;Temp;Humidity;BMP_temperature;BMP_pressure;BME280_temperature;BME280_humidity;BME280_pressure;Samples;Min_cycle;Max_cycle;Signal;HPM_P1;HPM_P2
2022/08/20 00:00:35;;;;;;;;;;;;;;;;;;5097131;28;19908;-22
2022/08/20 00:03:01;;;;;;;;;;;;;;;;;;5097075;28;19919;-22
2022/08/20 00:05:27;;;;;;;;;;;;;;;;;;5097334;28;19912;-22
2022/08/20 00:07:53;;;;;;;;;;;;;;;;;;5096980;28;20406;-26
2022/08/20 00:10:19;;;;;;;;;;;;;;;;;;5096968;28;20011;-25
2022/08/20 00:12:45;;;;;;;;;;;;;;;;;;5096920;28;19944;-25
2022/08/20 00:15:11;;;;;;;;;;;;;;;;;;5096884;28;19931;-22
2022/08/20 00:17:37;;;;;;;;;;;;;;;;;;5096857;28;19912;-22
2022/08/20 00:20:03;;;;;;;;;;;;;;;;;;5096787;28;20242;-22
2022/08/20 00:22:29;;;;;;;;;;;;;;;;;;5096662;28;20003;-22
2022/08/20 00:24:55;;;;;;;;;;;;;;;;;;5096972;28;19923;-24
2022/08/20 00:27:21;;;;;;;;;;;;;;;;;;5096645;28;19915;-24
2022/08/20 00:29:47;;;;;;;;;;;;;;;;;;5096545;28;19916;-25
2022/08/20 00:32:13;;;;;;;;;;;;;;;;;;5096528;28;19912;-26
2022/08/20 00:34:41;;;;;;;;;;;;;;;;;;5096493;28;19919;-27
2022/08/20 00:37:07;;;;;;;;;;;;;;;;;;5096720;28;19912;-25
2022/08/20 00:39:33;;;;;;;;;;;;;;;;;;5096342;28;19912;-25
2022/08/20 00:41:59;;;;;;;;;;;;;;;;;;5096288;28;19912;-25
2022/08/20 00:44:25;;;;;;;;;;;;;;;;;;5096356;28;19915;-24
2022/08/20 00:46:51;;;;;;;;;;;;;;;;;;5096281;28;20373;-24
2022/08/20 00:49:17;;;;;;;;;;;;;;;;;;5095972;28;19967;-25
2022/08/20 00:51:43;;;;;;;;;;;;;;;;;;5096239;28;20002;-26
2022/08/20 00:54:09;;;;;;;;;;;;;;;;;;5096115;28;19912;-26
2022/08/20 00:56:35;;;;;;;;;;;;;;;;;;5096419;28;20268;-24
2022/08/20 00:59:01;;;;;;;;;;;;;;;;;;5096095;28;19969;-26
2022/08/20 01:01:27;;;;;;;;;;;;;;;;;;5096078;28;19908;-24
2022/08/20 01:03:55;;;;;;;;;;;;;;;;;;5096232;28;20293;-24
2022/08/20 01:06:21;;;;;;;;;;;;;;;;;;5095885;28;20357;-24
2022/08/20 01:08:47;;;;;;;;;;;;;;;;;;5096156;28;19923;-25
2022/08/20 01:11:17;;;;;;;;;;;;;;;;;;5096943;28;19911;-25
2022/08/20 01:13:43;;;;;;;;;;;;;;;;;;5095757;28;20255;-26
2022/08/20 01:16:09;;;;;;;;;;;;;;;;;;5096105;28;19927;-24
2022/08/20 01:18:35;;;;;;;;;;;;;;;;;;5096173;28;19912;-25
2022/08/20 01:21:01;;;;;;;;;;;;;;;;;;5095747;28;19919;-25
2022/08/20 01:23:28;;;;;;;;;;;;;;;;;;5095619;28;20385;-28
2022/08/20 01:25:54;;;;;;;;;;;;;;;;;;5095938;28;19912;-24
2022/08/20 01:28:20;;;;;;;;;;;;;;;;;;5095838;28;19923;-25
2022/08/20 01:30:46;;;;;;;;;;;;;;;;;;5095541;28;19912;-22
2022/08/20 01:33:12;;;;;;;;;;;;;;;;;;5096207;28;19955;-22
2022/08/20 01:35:38;;;;;;;;;;;;;;;;;;5095765;28;19935;-27
2022/08/20 01:38:04;;;;;;;;;;;;;;;;;;5095689;28;19974;-22
2022/08/20 01:40:30;;;;;;;;;;;;;;;;;;5095472;28;20362;-23
2022/08/20 01:42:56;;;;;;;;;;;;;;;;;;5095447;28;19919;-22
2022/08/20 01:45:22;;;;;;;;;;;;;;;;;;5095400;28;19939;-22
2022/08/20 01:47:48;;;;;;;;;;;;;;;;;;5095099;28;19927;-23
2022/08/20 01:50:15;;;;;;;;;;;;;;;;;;5095311;28;19912;-22
2022/08/20 01:52:41;;;;;;;;;;;;;;;;;;5095236;28;19908;-24
2022/08/20 01:55:07;;;;;;;;;;;;;;;;;;5096042;28;19919;-21
2022/08/20 01:57:33;;;;;;;;;;;;;;;;;;5095259;28;19912;-22
2022/08/20 02:00:00;;;;;;;;;;;;;;;;;;5095489;28;20243;-25
2022/08/20 02:02:26;;;;;;;;;;;;;;;;;;5095322;28;19919;-24
2022/08/20 02:04:52;;;;;;;;;;;;;;;;;;5095149;28;20003;-22
2022/08/20 02:07:18;;;;;;;;;;;;;;;;;;5095199;28;20327;-22
2022/08/20 02:09:44;;;;;;;;;;;;;;;;;;5095050;28;19920;-22
2022/08/20 02:12:10;;;;;;;;;;;;;;;;;;5095313;28;19912;-21
2022/08/20 02:14:36;;;;;;;;;;;;;;;;;;5095132;28;19915;-22
2022/08/20 02:17:02;;;;;;;;;;;;;;;;;;5095007;28;19916;-22
2022/08/20 02:19:29;;;;;;;;;;;;;;;;;;5095048;28;20061;-22
2022/08/20 02:21:55;;;;;;;;;;;;;;;;;;5094896;28;19912;-23
2022/08/20 02:24:21;;;;;;;;;;;;;;;;;;5095004;28;19911;-26
2022/08/20 02:26:47;;;;;;;;;;;;;;;;;;5094988;28;19908;-25
2022/08/20 02:29:13;;;;;;;;;;;;;;;;;;5095152;28;19931;-24
2022/08/20 02:31:39;;;;;;;;;;;;;;;;;;5097965;28;19920;-26
2022/08/20 02:34:05;;;;;;;;;;;;;;;;;;5099027;28;19908;-24
2022/08/20 02:36:31;;;;;;;;;;;;;;;;;;5099121;28;20301;-24
2022/08/20 02:38:57;;;;;;;;;;;;;;;;;;5099550;28;19912;-24
2022/08/20 02:41:23;;;;;;;;;;;;;;;;;;5098666;28;19908;-23
2022/08/20 02:43:50;;;;;;;;;;;;;;;;;;5098608;28;19994;-24
2022/08/20 02:46:17;;;;;;;;;;;;;;;;;;5098630;28;19915;-22
2022/08/20 02:48:43;;;;;;;;;;;;;;;;;;5098335;28;19920;-22
2022/08/20 02:51:09;;;;;;;;;;;;;;;;;;5098547;28;19916;-22
2022/08/20 02:53:35;;;;;;;;;;;;;;;;;;5098533;28;19908;-23
2022/08/20 02:56:01;;;;;;;;;;;;;;;;;;5098479;28;19973;-22
2022/08/20 02:58:27;;;;;;;;;;;;;;;;;;5098676;28;19966;-22
2022/08/20 03:00:55;;;;;;;;;;;;;;;;;;5099159;28;19908;-22
2022/08/20 03:03:21;;;;;;;;;;;;;;;;;;5098281;28;20301;-22
2022/08/20 03:05:47;;;;;;;;;;;;;;;;;;5098192;28;19913;-23
2022/08/20 03:08:13;;;;;;;;;;;;;;;;;;5098418;28;19923;-23
2022/08/20 03:10:39;;;;;;;;;;;;;;;;;;5098114;28;19919;-23
2022/08/20 03:13:06;;;;;;;;;;;;;;;;;;5098332;28;19908;-22
2022/08/20 03:15:31;;;;;;;;;;;;;;;;;;5098006;28;20357;-22
2022/08/20 03:17:57;;;;;;;;;;;;;;;;;;5098301;28;19909;-25
2022/08/20 03:20:24;;;;;;;;;;;;;;;;;;5098037;28;20381;-22
2022/08/20 03:22:49;;;;;;;;;;;;;;;;;;5098148;28;19912;-25
2022/08/20 03:25:16;;;;;;;;;;;;;;;;;;5097892;28;20349;-26
2022/08/20 03:27:42;;;;;;;;;;;;;;;;;;5097780;28;19922;-22
2022/08/20 03:30:08;;;;;;;;;;;;;;;;;;5098048;28;19951;-22
2022/08/20 03:32:34;;;;;;;;;;;;;;;;;;5097681;28;19909;-22
2022/08/20 03:35:00;;;;;;;;;;;;;;;;;;5097943;28;19912;-22
2022/08/20 03:37:26;;;;;;;;;;;;;;;;;;5097984;28;19908;-24
2022/08/20 03:39:52;;;;;;;;;;;;;;;;;;5097588;28;19942;-24
2022/08/20 03:42:18;;;;;;;;;;;;;;;;;;5097134;28;20345;-22
2022/08/20 03:44:44;;;;;;;;;;;;;;;;;;5098310;28;19912;-22
2022/08/20 03:47:10;;;;;;;;;;;;;;;;;;5097490;28;20009;-22
2022/08/20 03:49:36;;;;;;;;;;;;;;;;;;5097346;28;19923;-26
2022/08/20 03:52:02;;;;;;;;;;;;;;;;;;5097555;28;19916;-23
2022/08/20 03:54:28;;;;;;;;;;;;;;;;;;5097314;28;19916;-22
2022/08/20 03:56:55;;;;;;;;;;;;;;;;;;5097229;28;19919;-22
2022/08/20 03:59:21;;;;;;;;;;;;;;;;;;5097193;28;19939;-23
2022/08/20 04:01:47;;;;;;;;;;;;;;;;;;5097333;28;19912;-22
2022/08/20 04:04:13;;;;;;;;;;;;;;;;;;5097337;28;19916;-23
2022/08/20 04:06:39;;;;;;;;;;;;;;;;;;5097319;28;19919;-23
2022/08/20 04:09:05;;;;;;;;;;;;;;;;;;5096865;28;19961;-25
2022/08/20 04:11:32;;;;;;;;;;;;;;;;;;5097019;28;19920;-25
2022/08/20 04:13:58;;;;;;;;;;;;;;;;;;5097122;28;20335;-24
2022/08/20 04:16:26;;;;;;;;;;;;;;;;;;5096846;28;19968;-25
2022/08/20 04:18:52;;;;;;;;;;;;;;;;;;5096769;28;20354;-24
2022/08/20 04:21:18;;;;;;;;;;;;;;;;;;5096788;28;19909;-25
2022/08/20 04:23:44;;;;;;;;;;;;;;;;;;5096684;28;19919;-24
2022/08/20 04:26:10;;;;;;;;;;;;;;;;;;5096671;28;19908;-26
2022/08/20 04:28:36;;;;;;;;;;;;;;;;;;5096916;28;20023;-25
2022/08/20 04:31:02;;;;;;;;;;;;;;;;;;5096560;28;20389;-26
2022/08/20 04:33:30;;;;;;;;;;;;;;;;;;5096481;28;19908;-25
2022/08/20 04:35:59;;;;;;;;;;;;;;;;;;5096848;28;19966;-27
2022/08/20 04:38:25;;;;;;;;;;;;;;;;;;5096445;28;19942;-23
2022/08/20 04:40:57;;;;;;;;;;;;;;;;;;5096758;28;20028;-22
2022/08/20 04:43:23;;;;;;;;;;;;;;;;;;5096413;28;19916;-22
2022/08/20 04:45:50;;;;;;;;;;;;;;;;;;5096896;28;19908;-23
2022/08/20 04:48:16;;;;;;;;;;;;;;;;;;5096084;28;20236;-22
2022/08/20 04:50:42;;;;;;;;;;;;;;;;;;5096494;28;19912;-24
2022/08/20 04:53:08;;;;;;;;;;;;;;;;;;5095433;28;19926;-22
2022/08/20 04:55:34;;;;;;;;;;;;;;;;;;5096375;28;19913;-25
2022/08/20 04:58:00;;;;;;;;;;;;;;;;;;5095153;28;20398;-24
2022/08/20 05:00:26;;;;;;;;;;;;;;;;;;5096260;28;19912;-22
2022/08/20 05:02:52;;;;;;;;;;;;;;;;;;5096119;28;19923;-22
2022/08/20 05:05:21;;;;;;;;;;;;;;;;;;5095975;28;19912;-22
2022/08/20 05:07:47;;;;;;;;;;;;;;;;;;5096114;28;19923;-23
2022/08/20 05:10:13;;;;;;;;;;;;;;;;;;5095841;28;20347;-22
2022/08/20 05:12:39;;;;;;;;;;;;;;;;;;5095784;28;19912;-22
2022/08/20 05:15:05;;;;;;;;;;;;;;;;;;5096312;28;19981;-23
2022/08/20 05:17:31;;;;;;;;;;;;;;;;;;5095951;28;19908;-23
2022/08/20 05:20:00;;;;;;;;;;;;;;;;;;5095677;28;19966;-22
2022/08/20 05:22:27;;;;;;;;;;;;;;;;;;5095798;28;20418;-22
2022/08/20 05:24:55;;;;;;;;;;;;;;;;;;5095608;28;20013;-22
2022/08/20 05:27:25;;;;;;;;;;;;;;;;;;5095884;28;19912;-22
2022/08/20 05:29:52;;;;;;;;;;;;;;;;;;5095738;28;19927;-23
2022/08/20 05:32:19;;;;;;;;;;;;;;;;;;5095434;28;19940;-23
2022/08/20 05:34:45;;;;;;;;;;;;;;;;;;5095474;28;20342;-24
2022/08/20 05:37:10;;;;;;;;;;;;;;;;;;5095468;28;19918;-23
2022/08/20 05:39:36;;;;;;;;;;;;;;;;;;5095426;28;19968;-23
2022/08/20 05:42:02;;;;;;;;;;;;;;;;;;5095337;28;19916;-24
2022/08/20 05:44:28;;;;;;;;;;;;;;;;;;5095951;28;19916;-22
2022/08/20 05:46:54;;;;;;;;;;;;;;;;;;5095476;28;20255;-25
2022/08/20 05:49:20;;;;;;;;;;;;;;;;;;5095546;28;19916;-23
2022/08/20 05:51:47;;;;;;;;;;;;;;;;;;5095213;28;19991;-22
2022/08/20 05:54:12;;;;;;;;;;;;;;;;;;5095143;28;19965;-22
2022/08/20 05:56:39;;;;;;;;;;;;;;;;;;5095153;28;19919;-22
2022/08/20 05:59:04;;;;;;;;;;;;;;;;;;5095435;28;20308;-25
2022/08/20 06:01:31;;;;;;;;;;;;;;;;;;5095437;28;19912;-22
2022/08/20 06:06:41;;;;;;;;;;;;;;;;;;5099631;28;19923;-26
2022/08/20 06:09:07;;;;;;;;;;;;;;;;;;5099258;28;19912;-22
2022/08/20 06:11:33;;;;;;;;;;;;;;;;;;5099541;28;19912;-24
2022/08/20 06:13:59;;;;;;;;;;;;;;;;;;5099170;28;19908;-23
2022/08/20 06:16:25;;;;;;;;;;;;;;;;;;5099191;28;19912;-24
2022/08/20 06:18:51;;;;;;;;;;;;;;;;;;5099343;28;19912;-25
2022/08/20 06:21:17;;;;;;;;;;;;;;;;;;5099027;28;19908;-23
2022/08/20 06:23:44;;;;;;;;;;;;;;;;;;5098982;28;20057;-23
2022/08/20 06:26:10;;;;;;;;;;;;;;;;;;5099280;28;19912;-23
2022/08/20 06:28:36;;;;;;;;;;;;;;;;;;5098861;28;20243;-22
2022/08/20 06:31:02;;;;;;;;;;;;;;;;;;5099670;28;20365;-23
2022/08/20 06:33:28;;;;;;;;;;;;;;;;;;5098749;28;19908;-25
2022/08/20 06:35:54;;;;;;;;;;;;;;;;;;5098855;28;19909;-23
2022/08/20 06:38:20;;;;;;;;;;;;;;;;;;5099058;28;20003;-23
2022/08/20 06:40:46;;;;;;;;;;;;;;;;;;5098708;28;20362;-25
2022/08/20 06:43:12;;;;;;;;;;;;;;;;;;5098624;28;19923;-23
2022/08/20 06:45:38;;;;;;;;;;;;;;;;;;5098831;28;19912;-22
2022/08/20 06:48:04;;;;;;;;;;;;;;;;;;5098243;28;19920;-22
2022/08/20 06:50:30;;;;;;;;;;;;;;;;;;5098539;28;19965;-23
2022/08/20 06:52:56;;;;;;;;;;;;;;;;;;5098312;28;19908;-24
2022/08/20 06:55:22;;;;;;;;;;;;;;;;;;5098424;28;19923;-23
2022/08/20 06:57:48;;;;;;;;;;;;;;;;;;5098583;28;20238;-22
2022/08/20 07:00:14;;;;;;;;;;;;;;;;;;5098234;28;19908;-23
2022/08/20 07:02:40;;;;;;;;;;;;;;;;;;5098242;28;19912;-23
2022/08/20 07:05:06;;;;;;;;;;;;;;;;;;5098205;28;19912;-24
2022/08/20 07:07:33;;;;;;;;;;;;;;;;;;5098254;28;19923;-22
2022/08/20 07:09:59;;;;;;;;;;;;;;;;;;5098063;28;20346;-26
2022/08/20 07:12:25;;;;;;;;;;;;;;;;;;5097976;28;19965;-23
2022/08/20 07:14:51;;;;;;;;;;;;;;;;;;5098007;28;19923;-22
2022/08/20 07:17:17;;;;;;;;;;;;;;;;;;5097425;28;20003;-22
2022/08/20 07:19:43;;;;;;;;;;;;;;;;;;5097879;28;20356;-24
2022/08/20 07:22:13;;;;;;;;;;;;;;;;;;5097830;28;19912;-23
2022/08/20 07:24:39;;;;;;;;;;;;;;;;;;5098078;28;19946;-25
2022/08/20 07:27:05;;;;;;;;;;;;;;;;;;5098067;28;19923;-23
2022/08/20 07:32:35;;;;;;;;;;;;;;;;;;5097921;28;19970;-22
2022/08/20 07:35:01;;;;;;;;;;;;;;;;;;5098056;28;20293;-22
2022/08/20 07:37:27;;;;;;;;;;;;;;;;;;5097575;28;20376;-22
2022/08/20 07:39:53;;;;;;;;;;;;;;;;;;5097880;28;19923;-25
2022/08/20 07:42:19;;;;;;;;;;;;;;;;;;5097419;28;20339;-24
2022/08/20 07:44:45;;;;;;;;;;;;;;;;;;5097524;28;19919;-23
2022/08/20 07:47:12;;;;;;;;;;;;;;;;;;5097199;28;19920;-22
2022/08/20 07:49:38;;;;;;;;;;;;;;;;;;5097343;28;19918;-25
2022/08/20 07:52:04;;;;;;;;;;;;;;;;;;5097232;28;19912;-24
2022/08/20 07:54:30;;;;;;;;;;;;;;;;;;5097661;28;19908;-23
2022/08/20 07:56:56;;;;;;;;;;;;;;;;;;5097463;28;20255;-23
2022/08/20 07:59:22;;;;;;;;;;;;;;;;;;5097526;28;19912;-23
2022/08/20 08:01:48;;;;;;;;;;;;;;;;;;5097075;28;19912;-23
2022/08/20 08:04:14;;;;;;;;;;;;;;;;;;5097093;28;19920;-23
2022/08/20 08:06:44;;;;;;;;;;;;;;;;;;5096982;28;19919;-23
2022/08/20 08:09:10;;;;;;;;;;;;;;;;;;5097182;28;20046;-26
2022/08/20 08:11:36;;;;;;;;;;;;;;;;;;5096908;28;20026;-23
2022/08/20 08:14:02;;;;;;;;;;;;;;;;;;5096708;28;19955;-22
2022/08/20 08:16:31;;;;;;;;;;;;;;;;;;5096815;28;19924;-23
2022/08/20 08:18:57;;;;;;;;;;;;;;;;;;5096640;28;19919;-22
2022/08/20 08:21:23;;;;;;;;;;;;;;;;;;5097040;28;19962;-24
2022/08/20 08:23:49;;;;;;;;;;;;;;;;;;5096630;28;19920;-24
2022/08/20 08:26:15;;;;;;;;;;;;;;;;;;5096603;28;19912;-23
2022/08/20 08:28:43;;;;;;;;;;;;;;;;;;5095781;28;19934;-22
2022/08/20 08:31:09;;;;;;;;;;;;;;;;;;5096528;28;20286;-23
2022/08/20 08:33:35;;;;;;;;;;;;;;;;;;5096621;28;19908;-23
2022/08/20 08:36:02;;;;;;;;;;;;;;;;;;5096405;28;19912;-23
2022/08/20 08:38:28;;;;;;;;;;;;;;;;;;5096392;28;20060;-25
2022/08/20 08:40:54;;;;;;;;;;;;;;;;;;5096360;28;19908;-22
2022/08/20 08:43:20;;;;;;;;;;;;;;;;;;5096556;28;19919;-23
2022/08/20 08:45:47;;;;;;;;;;;;;;;;;;5096356;28;20354;-24
2022/08/20 08:48:13;;;;;;;;;;;;;;;;;;5096126;28;20297;-24
2022/08/20 08:50:39;;;;;;;;;;;;;;;;;;5096236;28;20240;-22
2022/08/20 08:53:05;;;;;;;;;;;;;;;;;;5096073;28;20377;-22
2022/08/20 08:55:31;;;;;;;;;;;;;;;;;;5096089;28;19950;-25
2022/08/20 08:57:58;;;;;;;;;;;;;;;;;;5095222;28;19908;-22
2022/08/20 09:00:25;;;;;;;;;;;;;;;;;;5096314;28;19912;-22
2022/08/20 09:02:51;;;;;;;;;;;;;;;;;;5096093;28;20282;-25
2022/08/20 09:05:17;;;;;;;;;;;;;;;;;;5095995;28;20003;-23
2022/08/20 09:07:44;;;;;;;;;;;;;;;;;;5096223;28;19912;-22
2022/08/20 09:10:10;;;;;;;;;;;;;;;;;;5096121;28;19916;-23
2022/08/20 09:12:36;;;;;;;;;;;;;;;;;;5095803;28;20220;-23
2022/08/20 09:15:02;;;;;;;;;;;;;;;;;;5096568;28;20336;-25
2022/08/20 09:17:28;;;;;;;;;;;;;;;;;;5095767;28;19956;-24
2022/08/20 09:19:54;;;;;;;;;;;;;;;;;;5096001;28;19920;-23
2022/08/20 09:22:20;;;;;;;;;;;;;;;;;;5095871;28;19908;-25
2022/08/20 09:24:46;;;;;;;;;;;;;;;;;;5095933;28;19920;-22
2022/08/20 09:27:12;;;;;;;;;;;;;;;;;;5095563;28;20013;-27
2022/08/20 09:29:38;;;;;;;;;;;;;;;;;;5095469;28;19959;-22
2022/08/20 09:32:04;;;;;;;;;;;;;;;;;;5095890;28;19922;-25
2022/08/20 09:34:30;;;;;;;;;;;;;;;;;;5095599;28;20259;-25
2022/08/20 09:36:56;;;;;;;;;;;;;;;;;;5095627;28;19908;-22
2022/08/20 09:39:22;;;;;;;;;;;;;;;;;;5095058;28;20381;-22
2022/08/20 09:41:48;;;;;;;;;;;;;;;;;;5095806;28;19912;-23
2022/08/20 09:44:14;;;;;;;;;;;;;;;;;;5095382;28;19916;-23
2022/08/20 09:46:40;;;;;;;;;;;;;;;;;;5095604;28;19919;-23
2022/08/20 09:49:06;;;;;;;;;;;;;;;;;;5095025;28;20261;-22
2022/08/20 09:51:34;;;;;;;;;;;;;;;;;;5094397;28;20205;-23
2022/08/20 09:54:01;;;;;;;;;;;;;;;;;;5095100;28;19912;-24
2022/08/20 09:56:27;;;;;;;;;;;;;;;;;;5095470;28;19919;-23
2022/08/20 09:58:53;;;;;;;;;;;;;;;;;;5095454;28;20006;-23
2022/08/20 10:01:19;;;;;;;;;;;;;;;;;;5095151;28;19991;-23
2022/08/20 10:03:47;;;;;;;;;;;;;;;;;;5095021;28;19955;-23
2022/08/20 10:06:13;;;;;;;;;;;;;;;;;;5095090;28;19919;-23
2022/08/20 10:08:40;;;;;;;;;;;;;;;;;;5095326;28;20228;-23
2022/08/20 10:11:06;;;;;;;;;;;;;;;;;;5095128;28;20003;-24
2022/08/20 10:13:32;;;;;;;;;;;;;;;;;;5095463;28;19923;-23
2022/08/20 10:15:58;;;;;;;;;;;;;;;;;;5095601;28;19913;-23
2022/08/20 10:18:24;;;;;;;;;;;;;;;;;;5095043;28;19913;-23
2022/08/20 10:20:49;;;;;;;;;;;;;;;;;;5095023;28;19912;-24
2022/08/20 10:23:15;;;;;;;;;;;;;;;;;;5095247;28;19912;-27
2022/08/20 10:25:42;;;;;;;;;;;;;;;;;;5094969;28;20291;-23
2022/08/20 10:28:07;;;;;;;;;;;;;;;;;;5095141;28;19916;-23
2022/08/20 10:30:34;;;;;;;;;;;;;;;;;;5095250;28;19908;-22
2022/08/20 10:32:59;;;;;;;;;;;;;;;;;;5095410;28;19923;-24
2022/08/20 10:35:26;;;;;;;;;;;;;;;;;;5095184;28;20234;-26
2022/08/20 10:37:52;;;;;;;;;;;;;;;;;;5094808;28;19912;-24
2022/08/20 10:40:18;;;;;;;;;;;;;;;;;;5094808;28;19951;-26
2022/08/20 10:42:43;;;;;;;;;;;;;;;;;;5094732;28;19912;-27
2022/08/20 10:45:10;;;;;;;;;;;;;;;;;;5094715;28;19939;-22
2022/08/20 10:47:35;;;;;;;;;;;;;;;;;;5094405;28;19921;-23
2022/08/20 10:50:01;;;;;;;;;;;;;;;;;;5094908;28;19912;-23
2022/08/20 10:52:27;;;;;;;;;;;;;;;;;;5097544;28;20247;-23
2022/08/20 10:54:53;;;;;;;;;;;;;;;;;;5098559;28;19908;-22
2022/08/20 10:57:19;;;;;;;;;;;;;;;;;;5098750;28;20345;-23
2022/08/20 10:59:45;;;;;;;;;;;;;;;;;;5098714;28;19961;-23
2022/08/20 11:02:11;;;;;;;;;;;;;;;;;;5097374;28;19912;-23
2022/08/20 11:04:39;;;;;;;;;;;;;;;;;;5098608;28;19912;-23
2022/08/20 11:07:05;;;;;;;;;;;;;;;;;;5098578;28;19998;-23
2022/08/20 11:09:31;;;;;;;;;;;;;;;;;;5098171;28;19927;-23
2022/08/20 11:11:58;;;;;;;;;;;;;;;;;;5098020;28;19934;-22
2022/08/20 11:14:23;;;;;;;;;;;;;;;;;;5098485;28;19908;-23
2022/08/20 11:16:49;;;;;;;;;;;;;;;;;;5098018;28;20011;-23
2022/08/20 11:19:15;;;;;;;;;;;;;;;;;;5098084;28;19918;-23
2022/08/20 11:21:42;;;;;;;;;;;;;;;;;;5098020;28;19961;-24
2022/08/20 11:24:08;;;;;;;;;;;;;;;;;;5098147;28;19924;-23
2022/08/20 11:26:34;;;;;;;;;;;;;;;;;;5098198;28;19908;-22
2022/08/20 11:29:00;;;;;;;;;;;;;;;;;;5097781;28;19916;-22
2022/08/20 11:31:25;;;;;;;;;;;;;;;;;;5097846;28;20341;-22
2022/08/20 11:33:51;;;;;;;;;;;;;;;;;;5097689;28;19912;-25
2022/08/20 11:36:17;;;;;;;;;;;;;;;;;;5098023;28;19923;-22
2022/08/20 11:38:43;;;;;;;;;;;;;;;;;;5097940;28;19912;-22
2022/08/20 11:41:09;;;;;;;;;;;;;;;;;;5097903;28;19909;-23
2022/08/20 11:43:35;;;;;;;;;;;;;;;;;;5097758;28;19920;-23
2022/08/20 11:46:01;;;;;;;;;;;;;;;;;;5097796;28;20392;-23
2022/08/20 11:48:27;;;;;;;;;;;;;;;;;;5097251;28;20232;-23
2022/08/20 11:50:54;;;;;;;;;;;;;;;;;;5097454;28;19923;-23
2022/08/20 11:53:20;;;;;;;;;;;;;;;;;;5097333;28;19912;-24
2022/08/20 11:55:46;;;;;;;;;;;;;;;;;;5097355;28;19908;-22
2022/08/20 11:58:11;;;;;;;;;;;;;;;;;;5097568;28;19919;-23
2022/08/20 12:00:37;;;;;;;;;;;;;;;;;;5097325;28;20255;-22
2022/08/20 12:03:03;;;;;;;;;;;;;;;;;;5097190;28;19912;-22
2022/08/20 12:05:30;;;;;;;;;;;;;;;;;;5097491;28;19912;-22
2022/08/20 12:07:55;;;;;;;;;;;;;;;;;;5097095;28;20245;-24
2022/08/20 12:10:23;;;;;;;;;;;;;;;;;;5097093;28;19986;-25
2022/08/20 12:12:49;;;;;;;;;;;;;;;;;;5097032;28;20313;-23
2022/08/20 12:15:15;;;;;;;;;;;;;;;;;;5097263;28;19985;-25
2022/08/20 12:17:41;;;;;;;;;;;;;;;;;;5097201;28;19908;-24
2022/08/20 12:20:07;;;;;;;;;;;;;;;;;;5096895;28;20331;-23
2022/08/20 12:22:33;;;;;;;;;;;;;;;;;;5096740;28;19916;-22
2022/08/20 12:24:59;;;;;;;;;;;;;;;;;;5097082;28;19919;-23
2022/08/20 12:27:25;;;;;;;;;;;;;;;;;;5096778;28;19908;-22
2022/08/20 12:29:52;;;;;;;;;;;;;;;;;;5096572;28;19926;-23
2022/08/20 12:32:18;;;;;;;;;;;;;;;;;;5096665;28;20368;-23
2022/08/20 12:34:44;;;;;;;;;;;;;;;;;;5097402;28;19912;-23
2022/08/20 12:37:10;;;;;;;;;;;;;;;;;;5096561;28;19912;-25
2022/08/20 12:39:36;;;;;;;;;;;;;;;;;;5096805;28;19919;-22
2022/08/20 12:42:02;;;;;;;;;;;;;;;;;;5096394;28;19935;-23
2022/08/20 12:44:28;;;;;;;;;;;;;;;;;;5096422;28;20344;-22
2022/08/20 12:46:54;;;;;;;;;;;;;;;;;;5096350;28;20342;-22
2022/08/20 12:49:20;;;;;;;;;;;;;;;;;;5096530;28;19931;-23
2022/08/20 12:51:46;;;;;;;;;;;;;;;;;;5096497;28;19916;-22
2022/08/20 12:54:12;;;;;;;;;;;;;;;;;;5096261;28;19912;-22
2022/08/20 12:56:39;;;;;;;;;;;;;;;;;;5096201;28;19962;-22
2022/08/20 12:59:05;;;;;;;;;;;;;;;;;;5096097;28;19965;-22
2022/08/20 13:01:31;;;;;;;;;;;;;;;;;;5096183;28;19908;-23
2022/08/20 13:03:57;;;;;;;;;;;;;;;;;;5096029;28;19912;-24
2022/08/20 13:06:23;;;;;;;;;;;;;;;;;;5096022;28;19912;-23
2022/08/20 13:08:49;;;;;;;;;;;;;;;;;;5095906;28;19916;-22
2022/08/20 13:11:15;;;;;;;;;;;;;;;;;;5095991;28;19912;-25
2022/08/20 13:13:42;;;;;;;;;;;;;;;;;;5095377;28;19961;-22
2022/08/20 13:16:08;;;;;;;;;;;;;;;;;;5096597;28;19912;-23
2022/08/20 13:18:34;;;;;;;;;;;;;;;;;;5095810;28;20313;-23
2022/08/20 13:21:00;;;;;;;;;;;;;;;;;;5095772;28;19908;-23
2022/08/20 13:23:26;;;;;;;;;;;;;;;;;;5095637;28;20006;-22
2022/08/20 13:25:52;;;;;;;;;;;;;;;;;;5095982;28;20093;-25
2022/08/20 13:28:18;;;;;;;;;;;;;;;;;;5095553;28;19916;-26
2022/08/20 13:30:44;;;;;;;;;;;;;;;;;;5095668;28;19908;-23
2022/08/20 13:33:10;;;;;;;;;;;;;;;;;;5095502;28;19963;-22
2022/08/20 13:35:36;;;;;;;;;;;;;;;;;;5095832;28;19977;-24
2022/08/20 13:38:02;;;;;;;;;;;;;;;;;;5095446;28;20271;-23
2022/08/20 13:40:28;;;;;;;;;;;;;;;;;;5095528;28;19912;-23
2022/08/20 13:42:54;;;;;;;;;;;;;;;;;;5095305;28;19923;-24
2022/08/20 13:45:20;;;;;;;;;;;;;;;;;;5095487;28;19908;-23
2022/08/20 13:47:46;;;;;;;;;;;;;;;;;;5095677;28;19948;-22
2022/08/20 13:50:12;;;;;;;;;;;;;;;;;;5095306;28;19916;-23
2022/08/20 13:52:38;;;;;;;;;;;;;;;;;;5095201;28;20416;-25
2022/08/20 13:55:04;;;;;;;;;;;;;;;;;;5095631;28;19916;-23
2022/08/20 13:57:30;;;;;;;;;;;;;;;;;;5094370;28;19912;-23
2022/08/20 13:59:56;;;;;;;;;;;;;;;;;;5095277;28;19912;-23
2022/08/20 14:02:22;;;;;;;;;;;;;;;;;;5095182;28;19919;-22
2022/08/20 14:04:48;;;;;;;;;;;;;;;;;;5095231;28;19999;-24
2022/08/20 14:07:14;;;;;;;;;;;;;;;;;;5095262;28;20002;-23
2022/08/20 14:09:40;;;;;;;;;;;;;;;;;;5095983;28;19916;-22
2022/08/20 14:12:06;;;;;;;;;;;;;;;;;;5095046;28;19926;-23
2022/08/20 14:14:32;;;;;;;;;;;;;;;;;;5095442;28;19912;-23
2022/08/20 14:16:58;;;;;;;;;;;;;;;;;;5095080;28;19913;-23
2022/08/20 14:19:24;;;;;;;;;;;;;;;;;;5095374;28;19955;-24
2022/08/20 14:21:50;;;;;;;;;;;;;;;;;;5095296;28;20262;-24
2022/08/20 14:24:16;;;;;;;;;;;;;;;;;;5095040;28;20275;-27
2022/08/20 14:26:42;;;;;;;;;;;;;;;;;;5098574;28;19919;-23
2022/08/20 14:29:08;;;;;;;;;;;;;;;;;;5098965;28;19931;-23
2022/08/20 14:31:34;;;;;;;;;;;;;;;;;;5098980;28;20266;-22
2022/08/20 14:34:00;;;;;;;;;;;;;;;;;;5098919;28;19913;-25
2022/08/20 14:36:26;;;;;;;;;;;;;;;;;;5098850;28;19923;-23
2022/08/20 14:38:52;;;;;;;;;;;;;;;;;;5098887;28;19912;-22
2022/08/20 14:41:18;;;;;;;;;;;;;;;;;;5098849;28;20020;-23
2022/08/20 14:43:44;;;;;;;;;;;;;;;;;;5098707;28;19912;-22
2022/08/20 14:46:10;;;;;;;;;;;;;;;;;;5098721;28;20396;-23
2022/08/20 14:48:36;;;;;;;;;;;;;;;;;;5098368;28;19927;-23
2022/08/20 14:51:03;;;;;;;;;;;;;;;;;;5098619;28;19916;-25
2022/08/20 14:53:29;;;;;;;;;;;;;;;;;;5098780;28;20006;-24
2022/08/20 14:55:55;;;;;;;;;;;;;;;;;;5098833;28;20377;-23
2022/08/20 14:58:21;;;;;;;;;;;;;;;;;;5098762;28;19918;-22
2022/08/20 15:00:47;;;;;;;;;;;;;;;;;;5098409;28;20379;-25
2022/08/20 15:03:13;;;;;;;;;;;;;;;;;;5098601;28;19915;-24
2022/08/20 15:05:39;;;;;;;;;;;;;;;;;;5098337;28;19985;-23
2022/08/20 15:08:05;;;;;;;;;;;;;;;;;;5098253;28;19908;-23
2022/08/20 15:10:31;;;;;;;;;;;;;;;;;;5098516;28;19912;-24
2022/08/20 15:12:57;;;;;;;;;;;;;;;;;;5098462;28;19908;-22
2022/08/20 15:15:23;;;;;;;;;;;;;;;;;;5098477;28;20007;-24
2022/08/20 15:17:49;;;;;;;;;;;;;;;;;;5098117;28;20262;-23
2022/08/20 15:20:15;;;;;;;;;;;;;;;;;;5098317;28;19908;-24
2022/08/20 15:22:41;;;;;;;;;;;;;;;;;;5098257;28;19985;-23
2022/08/20 15:25:07;;;;;;;;;;;;;;;;;;5097920;28;19912;-25
2022/08/20 15:27:35;;;;;;;;;;;;;;;;;;5098253;28;19908;-24
2022/08/20 15:30:01;;;;;;;;;;;;;;;;;;5097796;28;19916;-22
2022/08/20 15:32:27;;;;;;;;;;;;;;;;;;5097715;28;19908;-23
2022/08/20 15:34:53;;;;;;;;;;;;;;;;;;5098046;28;19973;-23
2022/08/20 15:37:19;;;;;;;;;;;;;;;;;;5097160;28;20276;-23
2022/08/20 15:39:45;;;;;;;;;;;;;;;;;;5097681;28;19912;-22
2022/08/20 15:42:11;;;;;;;;;;;;;;;;;;5097855;28;19995;-23
2022/08/20 15:44:37;;;;;;;;;;;;;;;;;;5097855;28;20357;-22
2022/08/20 15:47:03;;;;;;;;;;;;;;;;;;5097599;28;19952;-22
2022/08/20 15:49:29;;;;;;;;;;;;;;;;;;5097520;28;19914;-23
2022/08/20 15:51:55;;;;;;;;;;;;;;;;;;5097711;28;19966;-23
2022/08/20 15:54:21;;;;;;;;;;;;;;;;;;5097461;28;19912;-23
2022/08/20 15:56:47;;;;;;;;;;;;;;;;;;5097426;28;20278;-23
2022/08/20 15:59:13;;;;;;;;;;;;;;;;;;5097403;28;19916;-23
2022/08/20 16:01:39;;;;;;;;;;;;;;;;;;5097269;28;19912;-23
2022/08/20 16:04:05;;;;;;;;;;;;;;;;;;5097222;28;19908;-23
2022/08/20 16:06:32;;;;;;;;;;;;;;;;;;5097510;28;19965;-23
2022/08/20 16:08:58;;;;;;;;;;;;;;;;;;5097360;28;19916;-24
2022/08/20 16:11:24;;;;;;;;;;;;;;;;;;5097101;28;19916;-23
2022/08/20 16:13:50;;;;;;;;;;;;;;;;;;5097254;28;19915;-25
2022/08/20 16:16:16;;;;;;;;;;;;;;;;;;5096997;28;19912;-23
2022/08/20 16:18:42;;;;;;;;;;;;;;;;;;5097018;28;19915;-24
2022/08/20 16:21:08;;;;;;;;;;;;;;;;;;5096895;28;19950;-22
2022/08/20 16:23:34;;;;;;;;;;;;;;;;;;5096782;28;19952;-23
2022/08/20 16:26:00;;;;;;;;;;;;;;;;;;5097099;28;19936;-23
2022/08/20 16:28:26;;;;;;;;;;;;;;;;;;5096761;28;19958;-22
2022/08/20 16:30:52;;;;;;;;;;;;;;;;;;5096956;28;20308;-23
2022/08/20 16:33:19;;;;;;;;;;;;;;;;;;5096723;28;19940;-22
2022/08/20 16:35:45;;;;;;;;;;;;;;;;;;5096947;28;19938;-23
2022/08/20 16:38:11;;;;;;;;;;;;;;;;;;5096564;28;19912;-23
2022/08/20 16:40:37;;;;;;;;;;;;;;;;;;5096570;28;20003;-25
2022/08/20 16:43:03;;;;;;;;;;;;;;;;;;5096560;28;19923;-23